Time;durP1;ratioP1;P1;durP2;ratioP2;P2;SDS_P1;SDS_P2;PMS_P1;PMS_P2;Temp;Humidity;BMP_temperature;BMP_pressure;BME280_temperature;BME280_humidity;BME280_pressure;Samples;Min_cycle;Max_cycle;Signal;HPM_P1;HPM_P2
2022/06/04 00:00:22;;;;;;;26.77;15.40;;;;;;;14.05;95.81;93972.44;5085658;28;20040;-53
2022/06/04 00:02:50;;;;;;;34.33;13.17;;;;;;;14.04;96.38;93970.09;5085396;28;20050;-46
2022/06/04 00:05:20;;;;;;;52.28;12.45;;;;;;;14.09;96.32;93986.16;5085412;28;20063;-51
2022/06/04 00:07:50;;;;;;;51.67;12.57;;;;;;;14.06;95.97;93976.72;5082582;28;20074;-50
2022/06/04 00:15:52;;;;;;;43.83;12.27;;;;;;;13.92;99.02;93975.16;5076701;28;20039;-53
2022/06/04 00:18:20;;;;;;;65.15;13.43;;;;;;;14.01;99.46;93971.75;5088375;28;20054;-51
2022/06/04 00:20:48;;;;;;;48.22;13.30;;;;;;;13.92;99.85;93977.13;5075700;28;20046;-49
2022/06/04 00:23:15;;;;;;;31.23;12.73;;;;;;;13.99;100.00;93983.22;5088532;28;20042;-49
2022/06/04 00:25:47;;;;;;;63.72;12.90;;;;;;;14.09;100.00;93994.41;5079825;28;20043;-51
2022/06/04 00:28:14;;;;;;;59.93;13.30;;;;;;;13.99;100.00;93979.69;5089628;28;20050;-53
2022/06/04 00:30:47;;;;;;;57.30;13.68;;;;;;;13.98;100.00;93978.13;5089162;28;20050;-51
2022/06/04 00:33:16;;;;;;;44.97;14.63;;;;;;;14.09;100.00;93966.81;5089655;28;20040;-47
2022/06/04 00:35:45;;;;;;;25.00;14.52;;;;;;;14.17;100.00;93968.16;5090213;28;20050;-48
2022/06/04 00:38:14;;;;;;;29.50;13.05;;;;;;;14.22;100.00;93962.09;5089688;28;20392;-52
2022/06/04 00:41:00;;;;;;;35.90;12.30;;;;;;;14.26;100.00;93956.47;5090218;28;20038;-51
2022/06/04 00:43:27;;;;;;;33.72;11.43;;;;;;;14.25;99.84;93966.75;5089500;28;20462;-50
2022/06/04 00:46:15;;;;;;;41.42;10.90;;;;;;;14.15;99.48;93973.34;5088094;28;20074;-51
2022/06/04 00:48:42;;;;;;;23.25;11.73;;;;;;;14.08;100.00;93966.03;5089883;28;20467;-50
2022/06/04 00:51:09;;;;;;;43.00;12.65;;;;;;;13.99;100.00;93963.91;5084774;28;20044;-51
2022/06/04 00:53:36;;;;;;;53.00;12.93;;;;;;;14.00;100.00;93967.44;5083028;28;20419;-52
2022/06/04 00:56:05;;;;;;;90.20;14.07;;;;;;;14.05;100.00;93961.41;5089667;28;20394;-54
2022/06/04 00:59:04;;;;;;;39.30;12.32;;;;;;;14.12;100.00;93961.19;5077210;28;20051;-53
2022/06/04 01:01:57;;;;;;;91.47;13.93;;;;;;;14.13;100.00;93965.50;5037689;28;20063;-50
2022/06/04 01:04:49;;;;;;;36.90;11.57;;;;;;;14.11;100.00;93967.16;5071507;28;20826;-50
2022/06/04 01:07:39;;;;;;;60.43;12.10;;;;;;;14.00;100.00;93964.69;5093159;28;20646;-50
2022/06/04 01:10:12;;;;;;;36.97;12.73;;;;;;;14.02;100.00;93965.03;5078987;28;20044;-48
2022/06/04 01:12:57;;;;;;;103.20;14.50;;;;;;;13.99;100.00;93960.38;5091445;28;20048;-49
2022/06/04 01:15:29;;;;;;;57.78;12.93;;;;;;;14.07;100.00;93964.50;5092826;28;20298;-47
2022/06/04 01:18:17;;;;;;;91.35;14.07;;;;;;;13.90;100.00;93969.28;5092946;28;20534;-48
2022/06/04 01:21:02;;;;;;;145.67;14.10;;;;;;;13.73;100.00;93965.81;5079092;28;20048;-48
2022/06/04 01:23:43;;;;;;;64.03;13.43;;;;;;;13.78;100.00;93956.22;5080460;28;20616;-46
2022/06/04 01:26:34;;;;;;;61.33;14.63;;;;;;;13.81;100.00;93971.91;5092987;28;20377;-47
2022/06/04 01:29:08;;;;;;;65.47;14.05;;;;;;;13.74;100.00;93963.81;5092954;28;20044;-48
2022/06/04 01:31:44;;;;;;;64.22;14.70;;;;;;;13.83;100.00;93969.50;5091459;28;20050;-47
2022/06/04 01:34:15;;;;;;;88.50;31.50;;;;;;;13.83;100.00;93972.25;5082662;28;20036;-47
2022/06/04 01:36:56;;;;;;;66.50;17.02;;;;;;;13.93;100.00;93973.94;5091724;28;20047;-46
2022/06/04 01:39:27;;;;;;;44.85;13.60;;;;;;;13.95;100.00;93974.28;5092237;28;20040;-53
2022/06/04 01:41:59;;;;;;;37.60;14.07;;;;;;;13.77;100.00;93972.00;5092710;28;20044;-47
2022/06/04 01:44:39;;;;;;;51.15;13.60;;;;;;;13.80;100.00;93975.84;5093025;28;20036;-53
2022/06/04 01:47:06;;;;;;;63.30;14.30;;;;;;;13.86;100.00;93981.63;5086869;28;20046;-48
2022/06/04 01:49:43;;;;;;;47.10;13.23;;;;;;;13.95;100.00;93977.03;5084680;28;20052;-47
2022/06/04 01:52:18;;;;;;;62.65;13.88;;;;;;;13.92;100.00;93982.66;5092181;28;20042;-48
2022/06/04 01:55:07;;;;;;;39.03;13.40;;;;;;;13.85;100.00;93977.34;5086396;28;20048;-52
2022/06/04 01:57:43;;;;;;;34.78;13.40;;;;;;;13.94;100.00;93974.72;5091638;28;20094;-49
2022/06/04 02:00:23;;;;;;;24.70;13.13;;;;;;;14.00;100.00;93975.72;5092640;28;20536;-47
2022/06/04 02:03:09;;;;;;;60.65;13.15;;;;;;;13.82;100.00;93973.44;5092490;28;20039;-49
2022/06/04 02:05:48;;;;;;;37.30;13.30;;;;;;;13.86;100.00;93970.59;5092641;28;20042;-48
2022/06/04 02:08:18;;;;;;;27.33;12.85;;;;;;;13.95;100.00;93973.50;5079169;28;21821;-52
2022/06/04 02:10:54;;;;;;;32.53;13.38;;;;;;;13.96;100.00;93977.81;5092452;28;20089;-59
2022/06/04 02:13:21;;;;;;;20.90;11.90;;;;;;;14.04;100.00;93979.16;5089524;28;20698;-51
2022/06/04 02:15:56;;;;;;;20.70;11.70;;;;;;;14.07;100.00;93981.06;5092502;28;20050;-49
2022/06/04 02:18:23;;;;;;;20.52;11.45;;;;;;;14.12;100.00;93980.50;5091334;28;20044;-47
2022/06/04 02:20:50;;;;;;;18.88;11.55;;;;;;;14.12;100.00;93979.72;5077722;28;20062;-53
2022/06/04 02:23:18;;;;;;;19.70;11.32;;;;;;;14.11;100.00;93978.97;5090352;28;20044;-47
2022/06/04 02:25:45;;;;;;;21.10;12.30;;;;;;;14.07;100.00;93974.78;5082083;28;20436;-51
2022/06/04 02:28:12;;;;;;;21.15;11.70;;;;;;;14.06;100.00;93967.69;5091496;28;20040;-55
2022/06/04 02:30:58;;;;;;;25.08;12.45;;;;;;;14.10;100.00;93965.59;5092235;28;20369;-52
2022/06/04 02:33:40;;;;;;;20.83;12.02;;;;;;;14.11;100.00;93969.91;5111174;28;20746;-48
2022/06/04 02:36:14;;;;;;;18.95;11.65;;;;;;;14.02;99.90;93967.78;5111956;28;20403;-53
2022/06/04 02:39:13;;;;;;;18.17;11.23;;;;;;;13.90;99.93;93971.28;5112334;28;20505;-47
2022/06/04 02:41:55;;;;;;;17.42;10.90;;;;;;;13.91;99.86;93972.84;5111406;28;20405;-47
2022/06/04 02:44:33;;;;;;;17.60;10.43;;;;;;;13.98;99.93;93972.63;5096964;28;20043;-50
2022/06/04 02:47:26;;;;;;;21.23;10.68;;;;;;;13.90;99.53;93976.78;5109758;28;20039;-50
2022/06/04 02:50:01;;;;;;;23.60;11.20;;;;;;;13.81;100.00;93991.22;5102972;28;20042;-53
2022/06/04 02:52:31;;;;;;;22.57;12.13;;;;;;;13.73;100.00;94012.69;5111676;28;20051;-51
2022/06/04 02:55:07;;;;;;;24.77;12.10;;;;;;;13.72;100.00;94037.94;5100716;28;20377;-53
2022/06/04 02:57:36;;;;;;;33.63;13.80;;;;;;;13.54;100.00;94030.09;5111739;28;20051;-49
2022/06/04 03:00:05;;;;;;;25.83;12.75;;;;;;;13.50;100.00;94043.22;5111122;28;20056;-49
2022/06/04 03:02:34;;;;;;;20.35;11.55;;;;;;;13.36;100.00;94028.59;5090332;28;20403;-48
2022/06/04 03:05:15;;;;;;;10.87;6.67;;;;;;;13.75;99.81;94034.31;5095365;28;20050;-50
2022/06/04 03:07:46;;;;;;;8.52;5.13;;;;;;;14.23;94.91;94021.63;5111646;28;20403;-50
2022/06/04 03:10:24;;;;;;;6.40;3.10;;;;;;;14.76;84.84;94030.38;5092668;28;20054;-49
2022/06/04 03:12:51;;;;;;;3.95;2.20;;;;;;;15.12;80.39;94021.00;5111453;28;20047;-49
2022/06/04 03:15:18;;;;;;;3.33;1.73;;;;;;;15.43;76.55;93994.78;5111553;28;20377;-49
2022/06/04 03:17:46;;;;;;;3.70;1.43;;;;;;;15.77;73.14;94021.72;5090103;28;20052;-48
2022/06/04 03:20:24;;;;;;;3.25;1.40;;;;;;;15.86;73.68;94016.31;5104310;28;20066;-51
2022/06/04 03:22:51;;;;;;;3.67;1.20;;;;;;;16.02;71.24;94007.06;5109865;28;20039;-50
2022/06/04 03:25:19;;;;;;;3.80;1.25;;;;;;;16.22;70.12;94025.34;5099378;28;20054;-48
2022/06/04 03:27:47;;;;;;;2.38;1.17;;;;;;;16.18;70.68;94023.50;5111408;28;20035;-50
2022/06/04 03:30:14;;;;;;;3.83;1.60;;;;;;;16.20;71.74;94034.13;5110863;28;20046;-50
2022/06/04 03:32:41;;;;;;;4.30;1.60;;;;;;;16.17;72.73;94026.69;5111141;28;20062;-54
2022/06/04 03:35:09;;;;;;;4.78;1.50;;;;;;;16.22;72.79;94028.13;5109463;28;20039;-47
2022/06/04 03:37:37;;;;;;;3.65;1.55;;;;;;;16.12;74.36;94016.22;5098311;28;20438;-47
2022/06/04 03:40:05;;;;;;;6.03;1.60;;;;;;;16.12;74.54;94022.53;5096852;28;20048;-48
2022/06/04 03:42:32;;;;;;;4.60;1.80;;;;;;;16.04;74.87;93988.00;5106453;28;20043;-48
2022/06/04 03:44:59;;;;;;;5.13;1.88;;;;;;;15.95;76.55;93972.06;5110345;28;20612;-53
2022/06/04 03:47:26;;;;;;;4.55;1.88;;;;;;;15.91;77.69;93946.53;5110979;28;20042;-50
2022/06/04 03:49:54;;;;;;;5.05;1.88;;;;;;;15.73;80.17;93913.19;5097536;28;20050;-53
2022/06/04 03:52:21;;;;;;;7.72;2.08;;;;;;;15.68;82.40;93833.50;5109593;28;20040;-52
2022/06/04 03:54:54;;;;;;;5.47;2.10;;;;;;;15.30;85.40;93732.16;5110878;28;20039;-48
2022/06/04 03:57:39;;;;;;;5.55;1.95;;;;;;;15.03;87.43;93768.63;5110114;28;20893;-54
2022/06/04 04:00:38;;;;;;;3.72;1.50;;;;;;;15.00;82.34;93764.03;5105578;28;20040;-51
2022/06/04 04:03:13;;;;;;;4.32;1.80;;;;;;;15.18;83.80;93780.75;5105338;28;20044;-49
2022/06/04 04:05:47;;;;;;;5.93;1.80;;;;;;;15.08;86.43;93790.19;5093039;28;20042;-49
2022/06/04 04:08:14;;;;;;;4.60;1.80;;;;;;;14.95;86.69;93802.06;5110389;28;20437;-48
2022/06/04 04:10:43;;;;;;;4.25;1.60;;;;;;;14.77;87.67;93816.47;5110557;28;20043;-47
2022/06/04 04:13:12;;;;;;;6.25;1.80;;;;;;;14.87;87.32;93835.88;5110030;28;20051;-48
2022/06/04 04:15:39;;;;;;;5.75;1.70;;;;;;;14.92;87.17;93833.34;5110348;28;20035;-47
2022/06/04 04:18:07;;;;;;;3.78;1.80;;;;;;;14.84;87.06;93840.31;5110205;28;20043;-50
2022/06/04 04:20:36;;;;;;;3.87;1.83;;;;;;;14.85;87.53;93861.22;5110260;28;20417;-52
2022/06/04 04:23:05;;;;;;;3.85;1.90;;;;;;;14.88;88.25;93874.13;5091940;28;20062;-47
2022/06/04 04:25:33;;;;;;;3.30;1.88;;;;;;;14.82;89.68;93911.81;5107643;28;20039;-51
2022/06/04 04:28:00;;;;;;;4.68;1.80;;;;;;;14.86;84.69;93944.88;5110267;28;20040;-49
2022/06/04 04:30:29;;;;;;;4.70;1.70;;;;;;;15.42;80.14;93971.13;5092326;28;20431;-50
2022/06/04 04:32:56;;;;;;;8.43;1.47;;;;;;;15.61;77.54;94019.09;5091877;28;20062;-47
2022/06/04 04:35:28;;;;;;;3.80;1.60;;;;;;;15.59;78.58;94055.50;5113522;28;20061;-53
2022/06/04 04:37:56;;;;;;;5.63;1.80;;;;;;;15.53;79.83;94105.09;5113586;28;20087;-52
2022/06/04 04:40:25;;;;;;;5.03;1.80;;;;;;;15.47;80.42;94130.94;5114365;28;20764;-50
2022/06/04 04:42:52;;;;;;;3.75;1.70;;;;;;;15.48;80.32;94104.84;5111185;28;20422;-56
2022/06/04 04:45:22;;;;;;;4.83;1.50;;;;;;;15.37;79.91;94127.28;5112002;28;20643;-52
2022/06/04 04:47:49;;;;;;;4.07;1.58;;;;;;;15.47;78.45;94119.88;5114198;28;20043;-48
2022/06/04 04:50:26;;;;;;;6.95;3.10;;;;;;;15.37;80.65;94130.84;5098673;28;20101;-56
2022/06/04 04:52:54;;;;;;;3.75;1.80;;;;;;;15.47;79.04;94133.72;5110015;28;20047;-51
2022/06/04 04:55:28;;;;;;;3.58;1.80;;;;;;;15.63;79.11;94154.97;5084183;28;20050;-49
2022/06/04 04:57:55;;;;;;;4.03;1.90;;;;;;;15.58;79.06;94143.25;5109456;28;20394;-48
2022/06/04 05:00:22;;;;;;;3.95;1.80;;;;;;;15.72;77.66;94155.09;5104517;28;20036;-49
2022/06/04 05:02:49;;;;;;;3.00;1.70;;;;;;;15.83;77.97;94160.31;5109666;28;20039;-51
2022/06/04 05:05:17;;;;;;;3.83;1.67;;;;;;;15.94;77.40;94158.75;5113197;28;20123;-48
2022/06/04 05:07:44;;;;;;;3.35;1.70;;;;;;;15.97;76.69;94166.16;5114010;28;20069;-55
2022/06/04 05:10:13;;;;;;;3.23;1.93;;;;;;;16.05;76.77;94157.63;5095713;28;20039;-53
2022/06/04 05:12:40;;;;;;;6.00;1.75;;;;;;;16.17;76.07;94167.91;5114211;28;20040;-52
2022/06/04 05:15:07;;;;;;;3.00;1.80;;;;;;;16.12;75.98;94160.19;5113392;28;20508;-51
2022/06/04 05:17:34;;;;;;;3.38;1.98;;;;;;;16.14;77.08;94166.06;5113759;28;20036;-48
2022/06/04 05:20:01;;;;;;;5.07;2.33;;;;;;;16.22;76.15;94158.25;5113183;28;20048;-48
2022/06/04 05:22:28;;;;;;;3.70;1.83;;;;;;;16.20;75.74;94167.03;5113523;28;20032;-49
2022/06/04 05:24:55;;;;;;;2.88;1.58;;;;;;;16.36;74.86;94166.88;5112851;28;20044;-56
2022/06/04 05:27:21;;;;;;;9.90;6.13;;;;;;;16.37;75.77;94160.09;5113576;28;20050;-48
2022/06/04 05:29:48;;;;;;;7.97;5.90;;;;;;;16.41;75.59;94156.47;5095560;28;20498;-48
2022/06/04 05:32:15;;;;;;;7.40;4.00;;;;;;;16.56;74.75;94152.75;5112622;28;20389;-54
2022/06/04 05:34:42;;;;;;;6.87;4.07;;;;;;;16.57;75.01;94143.19;5104589;28;20377;-50
2022/06/04 05:37:08;;;;;;;4.18;2.35;;;;;;;16.38;76.32;94133.97;5105849;28;20039;-49
2022/06/04 05:39:35;;;;;;;4.13;1.80;;;;;;;16.52;75.84;94115.28;5112966;28;20062;-53
2022/06/04 05:42:04;;;;;;;4.05;1.50;;;;;;;16.60;74.37;94113.84;5112474;28;20046;-47
2022/06/04 05:44:31;;;;;;;4.07;1.55;;;;;;;16.71;74.35;94099.59;5112870;28;20050;-58
2022/06/04 05:46:58;;;;;;;3.43;1.93;;;;;;;16.63;74.05;94090.75;5112438;28;20503;-50
2022/06/04 05:49:25;;;;;;;3.42;1.55;;;;;;;16.65;74.38;94068.16;5113351;28;20044;-52
2022/06/04 05:51:52;;;;;;;3.28;1.50;;;;;;;16.50;74.15;94018.81;5112744;28;20035;-47
2022/06/04 05:54:19;;;;;;;3.47;1.63;;;;;;;16.17;74.65;93963.78;5099988;28;20058;-48
2022/06/04 05:56:48;;;;;;;4.22;1.88;;;;;;;16.32;74.97;93946.69;5113105;28;20408;-47
2022/06/04 05:59:18;;;;;;;4.50;2.07;;;;;;;16.32;74.62;93932.81;5093703;28;20044;-51
2022/06/04 06:01:46;;;;;;;4.30;2.00;;;;;;;16.33;76.77;93954.50;5112905;28;20032;-47
2022/06/04 06:04:16;;;;;;;3.20;1.73;;;;;;;16.58;76.76;93958.38;5112512;28;20488;-51
2022/06/04 06:06:46;;;;;;;3.05;1.50;;;;;;;16.81;76.85;93948.81;5111739;28;20063;-48
2022/06/04 06:09:15;;;;;;;4.38;1.80;;;;;;;16.92;77.03;93945.59;5110956;28;20043;-51
2022/06/04 06:11:43;;;;;;;3.67;1.80;;;;;;;17.10;75.64;93956.00;5098707;28;20036;-48
2022/06/04 06:14:11;;;;;;;4.97;1.70;;;;;;;17.03;76.66;93959.81;5104924;28;20047;-52
2022/06/04 06:16:41;;;;;;;4.43;1.63;;;;;;;17.41;75.42;93975.34;5106267;28;20048;-49
2022/06/04 06:19:08;;;;;;;9.32;7.32;;;;;;;17.06;77.12;93977.53;5112241;28;20093;-55
2022/06/04 06:21:36;;;;;;;5.63;3.50;;;;;;;17.00;76.97;93991.22;5112040;28;20043;-48
2022/06/04 06:24:08;;;;;;;3.97;2.70;;;;;;;17.28;75.69;94003.19;5111984;28;20058;-48
2022/06/04 06:26:43;;;;;;;3.92;2.30;;;;;;;17.16;76.44;93999.31;5112328;28;20054;-52
2022/06/04 06:29:09;;;;;;;4.60;2.20;;;;;;;17.08;76.88;94006.38;5108114;28;20054;-46
2022/06/04 06:31:36;;;;;;;4.63;2.25;;;;;;;17.35;76.57;94002.91;5112366;28;20050;-46
2022/06/04 06:34:03;;;;;;;4.13;2.70;;;;;;;17.86;75.36;94012.00;5111612;28;20061;-49
2022/06/04 06:36:30;;;;;;;5.30;2.40;;;;;;;18.65;73.12;94016.94;5112154;28;20399;-53
2022/06/04 06:38:57;;;;;;;3.08;1.70;;;;;;;18.70;70.63;94017.09;5105402;28;20044;-51
2022/06/04 06:41:25;;;;;;;5.25;3.40;;;;;;;18.75;69.48;94022.03;5111050;28;20516;-49
2022/06/04 06:43:51;;;;;;;4.07;2.20;;;;;;;18.46;71.63;94043.97;5109247;28;20043;-55
2022/06/04 06:46:39;;;;;;;4.00;2.17;;;;;;;18.85;69.79;94033.91;5111405;28;20054;-54
2022/06/04 06:49:12;;;;;;;5.40;1.90;;;;;;;19.03;69.54;94058.13;5110874;28;20054;-48
2022/06/04 06:51:50;;;;;;;6.05;3.63;;;;;;;19.04;69.43;94062.47;5110871;28;20051;-49
2022/06/04 06:54:20;;;;;;;3.78;2.08;;;;;;;19.56;66.53;94070.81;5108284;28;20066;-54
2022/06/04 06:56:49;;;;;;;4.28;2.00;;;;;;;19.62;66.67;94079.25;5109888;28;20050;-50
2022/06/04 06:59:16;;;;;;;7.55;4.53;;;;;;;18.71;68.27;94063.13;5109858;28;21624;-54
2022/06/04 07:01:43;;;;;;;6.37;4.47;;;;;;;18.36;69.38;94063.41;5110086;28;20051;-55
2022/06/04 07:04:10;;;;;;;4.80;3.08;;;;;;;18.85;69.24;94055.38;5111257;28;20047;-51
2022/06/04 07:06:40;;;;;;;6.28;3.05;;;;;;;23.45;57.01;94054.72;5111859;28;20058;-55
2022/06/04 07:09:12;;;;;;;4.20;1.80;;;;;;;25.78;50.66;94063.59;5089463;28;20063;-50
2022/06/04 07:11:39;;;;;;;5.95;3.10;;;;;;;26.74;44.71;94057.00;5102848;28;20036;-48
2022/06/04 07:14:05;;;;;;;7.07;4.77;;;;;;;26.98;44.97;94053.53;5111039;28;20078;-52
2022/06/04 07:16:32;;;;;;;7.63;6.00;;;;;;;25.35;47.16;94063.06;5111402;28;20051;-48
2022/06/04 07:19:00;;;;;;;4.20;2.20;;;;;;;23.83;50.02;94063.19;5110884;28;20058;-52
2022/06/04 07:21:27;;;;;;;7.28;4.20;;;;;;;22.11;55.50;94063.91;5110858;28;20048;-49
2022/06/04 07:23:55;;;;;;;3.28;1.75;;;;;;;20.85;59.73;94061.63;5110955;28;20031;-46
2022/06/04 07:26:22;;;;;;;3.10;1.50;;;;;;;21.78;57.36;94049.47;5110954;28;20043;-47
2022/06/04 07:28:49;;;;;;;3.55;2.00;;;;;;;24.12;51.34;94042.44;5111114;28;20407;-50
2022/06/04 07:31:16;;;;;;;3.33;2.05;;;;;;;24.19;50.82;94039.19;5110149;28;21811;-50
2022/06/04 07:33:45;;;;;;;3.45;1.58;;;;;;;23.49;52.77;94032.09;5111042;28;20061;-50
2022/06/04 07:36:19;;;;;;;4.47;2.50;;;;;;;23.90;52.30;94031.88;5107011;28;20047;-52
2022/06/04 07:38:46;;;;;;;3.60;1.60;;;;;;;25.01;48.38;94024.44;5110627;28;20446;-52
2022/06/04 07:41:23;;;;;;;2.92;1.55;;;;;;;23.65;50.87;94027.88;5075626;28;20039;-51
2022/06/04 07:43:51;;;;;;;4.40;1.70;;;;;;;22.20;54.96;94017.50;5110411;28;20403;-49
2022/06/04 07:46:19;;;;;;;3.75;1.67;;;;;;;23.12;53.55;94030.78;5089653;28;20104;-51
2022/06/04 07:48:47;;;;;;;7.93;6.22;;;;;;;26.45;46.13;94031.00;5110934;28;20053;-48
2022/06/04 07:51:16;;;;;;;4.33;1.90;;;;;;;25.94;45.64;94028.31;5110547;28;20389;-51
2022/06/04 07:53:43;;;;;;;2.60;1.30;;;;;;;23.57;49.41;94038.78;5105232;28;20044;-47
2022/06/04 07:56:16;;;;;;;3.22;1.58;;;;;;;23.30;50.76;94037.25;5110772;28;20404;-52
2022/06/04 07:58:43;;;;;;;3.30;1.38;;;;;;;22.88;51.72;94033.06;5110870;28;20047;-49
2022/06/04 08:01:16;;;;;;;2.70;1.35;;;;;;;23.36;50.93;94028.91;5092294;28;20054;-50
2022/06/04 08:03:44;;;;;;;3.87;1.40;;;;;;;23.11;50.54;94046.00;5110734;28;20039;-51
2022/06/04 08:06:13;;;;;;;2.97;1.40;;;;;;;23.16;51.33;94038.16;5110098;28;20048;-51
2022/06/04 08:08:41;;;;;;;4.00;1.50;;;;;;;22.94;51.59;94034.63;5110337;28;20040;-55
2022/06/04 08:13:53;;;;;;;3.40;1.60;;;;;;;26.02;45.78;94042.63;5110095;28;20044;-51
2022/06/04 08:16:20;;;;;;;2.57;1.57;;;;;;;26.37;44.28;94035.63;5111232;28;20043;-48
2022/06/04 08:18:48;;;;;;;2.88;1.50;;;;;;;27.33;43.61;94032.38;5110062;28;20044;-50
2022/06/04 08:21:15;;;;;;;3.13;1.40;;;;;;;28.82;40.18;94038.34;5091630;28;20468;-50
2022/06/04 08:23:44;;;;;;;3.08;1.70;;;;;;;28.34;40.92;94036.34;5088382;28;20594;-52
2022/06/04 08:26:12;;;;;;;3.17;1.40;;;;;;;28.31;40.71;94026.09;5071006;28;20044;-52
2022/06/04 08:28:39;;;;;;;3.13;1.70;;;;;;;29.59;39.59;94037.00;5089655;28;20051;-57
2022/06/04 08:31:13;;;;;;;4.07;1.63;;;;;;;30.67;36.74;94038.75;5089078;28;20403;-52
2022/06/04 08:33:41;;;;;;;4.05;1.33;;;;;;;29.72;37.34;94044.81;5089824;28;20487;-50
2022/06/04 08:36:10;;;;;;;3.00;1.30;;;;;;;30.26;37.03;94037.94;5088953;28;20377;-52
2022/06/04 08:38:38;;;;;;;2.65;1.27;;;;;;;29.41;37.73;94023.69;5089889;28;20073;-51
2022/06/04 08:41:07;;;;;;;2.60;1.47;;;;;;;28.89;39.40;94036.97;5070853;28;20450;-50
2022/06/04 08:43:51;;;;;;;4.13;1.60;;;;;;;31.22;34.23;94038.88;5089911;28;20040;-53
2022/06/04 08:46:42;;;;;;;3.15;1.30;;;;;;;31.37;33.99;94029.78;5088404;28;21521;-49
2022/06/04 08:49:14;;;;;;;2.92;1.20;;;;;;;29.90;36.32;94039.63;5089264;28;20495;-56
2022/06/04 08:51:43;;;;;;;3.67;1.40;;;;;;;28.77;37.79;94044.06;5089598;28;20044;-54
2022/06/04 08:57:33;;;;;;;4.20;1.50;;;;;;;27.05;41.57;94044.56;5054931;28;20085;-56
2022/06/04 09:00:12;;;;;;;4.95;1.30;;;;;;;29.36;36.25;94041.47;5088826;28;20048;-54
2022/06/04 09:02:55;;;;;;;2.88;1.30;;;;;;;29.46;36.68;94042.63;5089579;28;20530;-53
2022/06/04 09:05:32;;;;;;;3.35;1.45;;;;;;;29.63;35.57;94048.00;5088989;28;20758;-50
2022/06/04 09:08:04;;;;;;;3.00;1.30;;;;;;;28.96;36.99;94053.31;5088826;28;20396;-49
2022/06/04 09:10:40;;;;;;;2.50;1.40;;;;;;;28.37;39.29;94046.56;5089520;28;20050;-49
2022/06/04 09:13:19;;;;;;;3.45;1.40;;;;;;;29.85;35.45;94041.25;5088724;28;20040;-50
2022/06/04 09:15:50;;;;;;;3.33;1.80;;;;;;;30.76;34.91;94032.63;5089389;28;20042;-50
2022/06/04 09:18:32;;;;;;;3.15;1.42;;;;;;;32.61;31.68;94035.22;5088546;28;21782;-50
2022/06/04 09:21:01;;;;;;;3.50;1.40;;;;;;;30.48;35.20;94029.59;5090493;28;20042;-50
2022/06/04 09:23:48;;;;;;;2.83;1.40;;;;;;;30.05;35.85;94017.25;5095967;28;20046;-52
2022/06/04 09:26:27;;;;;;;2.88;1.35;;;;;;;31.19;33.77;94025.03;5112241;28;20860;-50
2022/06/04 09:29:23;;;;;;;2.45;1.40;;;;;;;32.90;31.00;94029.50;5113007;28;20040;-53
2022/06/04 09:32:11;;;;;;;3.67;1.40;;;;;;;32.15;31.32;94034.13;5081707;28;20115;-54
2022/06/04 09:34:49;;;;;;;3.70;1.40;;;;;;;32.86;30.89;94037.63;5112290;28;20823;-54
2022/06/04 09:37:17;;;;;;;2.83;1.38;;;;;;;31.45;32.56;94044.03;5112326;28;21799;-56
2022/06/04 09:39:47;;;;;;;6.53;1.35;;;;;;;31.63;32.63;94037.44;5113425;28;20036;-51
2022/06/04 09:42:14;;;;;;;3.05;1.42;;;;;;;33.41;29.16;94042.97;5112027;28;20043;-50
2022/06/04 09:44:54;;;;;;;2.92;1.27;;;;;;;32.96;29.08;94035.00;5113293;28;20411;-54
2022/06/04 09:47:25;;;;;;;4.13;1.40;;;;;;;32.31;30.17;94035.75;5111830;28;20606;-51
2022/06/04 09:49:56;;;;;;;3.03;1.50;;;;;;;33.46;28.54;94038.44;5112224;28;20046;-51
2022/06/04 09:52:45;;;;;;;4.45;1.60;;;;;;;33.64;29.14;94042.28;5112555;28;20040;-47
2022/06/04 09:55:16;;;;;;;4.15;1.58;;;;;;;31.55;32.12;94030.94;5073474;28;20036;-52
2022/06/04 09:58:04;;;;;;;3.88;1.70;;;;;;;30.72;33.71;94022.94;5092599;28;20040;-52
2022/06/04 10:00:39;;;;;;;4.00;1.97;;;;;;;29.98;35.38;94026.34;5091657;28;20690;-50
2022/06/04 10:03:17;;;;;;;4.18;2.20;;;;;;;31.62;32.81;94026.66;5089899;28;20056;-46
2022/06/04 10:06:09;;;;;;;3.17;1.60;;;;;;;33.78;29.83;94034.34;5092371;28;20512;-50
2022/06/04 10:11:33;;;;;;;5.07;1.60;;;;;;;33.76;29.14;94034.91;5091373;28;20048;-47
2022/06/04 10:14:00;;;;;;;3.20;1.43;;;;;;;33.50;29.55;94032.38;5091319;28;20048;-59
2022/06/04 10:16:27;;;;;;;4.72;1.42;;;;;;;33.56;29.40;94032.94;5091866;28;20451;-53
2022/06/04 10:19:13;;;;;;;7.28;1.60;;;;;;;32.38;31.72;94022.94;5091751;28;20047;-50
2022/06/04 10:21:42;;;;;;;3.35;1.50;;;;;;;31.87;31.61;94024.22;5091679;28;20046;-57
2022/06/04 10:24:24;;;;;;;5.05;2.25;;;;;;;33.31;30.07;94024.19;5099853;28;20039;-51
2022/06/04 10:27:12;;;;;;;4.97;1.47;;;;;;;31.99;29.94;94027.53;5093684;28;20042;-50
2022/06/04 10:30:13;;;;;;;2.33;1.15;;;;;;;30.28;32.70;94026.06;5112117;28;20048;-52
2022/06/04 10:33:04;;;;;;;3.63;1.25;;;;;;;29.38;34.23;94025.53;5111358;28;20923;-52
2022/06/04 10:35:56;;;;;;;3.55;1.10;;;;;;;30.51;32.85;94022.84;5111268;28;21503;-52
2022/06/04 10:38:48;;;;;;;3.80;1.30;;;;;;;28.01;36.98;94022.06;5110950;28;20645;-54
2022/06/04 10:41:42;;;;;;;3.83;1.10;;;;;;;28.30;35.70;94031.00;5111229;28;20046;-48
2022/06/04 10:44:24;;;;;;;2.95;1.13;;;;;;;27.88;36.93;94024.75;5111355;28;20055;-48
2022/06/04 10:47:16;;;;;;;2.65;1.00;;;;;;;29.30;34.73;94026.66;5111298;28;20039;-50
2022/06/04 10:50:04;;;;;;;2.92;1.33;;;;;;;25.95;41.68;94029.09;5111651;28;20058;-57
2022/06/04 10:52:40;;;;;;;4.50;1.25;;;;;;;26.76;40.82;94024.22;5092017;28;20765;-51
2022/06/04 10:55:45;;;;;;;3.87;1.50;;;;;;;27.59;39.01;94027.03;5072665;28;20044;-48
2022/06/04 10:58:24;;;;;;;4.85;1.50;;;;;;;25.89;42.82;94026.25;5090475;28;20396;-54
2022/06/04 11:01:31;;;;;;;3.28;1.60;;;;;;;24.77;45.50;94026.94;5090692;28;20047;-50
2022/06/04 11:04:36;;;;;;;4.25;1.50;;;;;;;25.75;43.53;94033.69;5008128;28;20145;-50
2022/06/04 11:07:30;;;;;;;4.07;1.70;;;;;;;25.63;44.26;94030.09;4977285;28;20051;-50
2022/06/04 11:09:59;;;;;;;5.10;1.70;;;;;;;25.17;44.22;94030.56;4977372;28;20054;-49
2022/06/04 11:12:39;;;;;;;4.20;1.92;;;;;;;25.24;44.40;94024.50;5056775;28;20040;-50
2022/06/04 11:15:14;;;;;;;3.88;1.95;;;;;;;26.45;42.03;94031.75;5095356;28;20079;-47
2022/06/04 11:17:54;;;;;;;4.70;1.70;;;;;;;25.34;43.44;94039.81;5091311;28;20040;-55
2022/06/04 11:20:26;;;;;;;6.18;1.80;;;;;;;26.07;41.97;94031.34;5089492;28;20842;-53
2022/06/04 11:23:08;;;;;;;3.93;1.50;;;;;;;26.68;41.46;94032.47;5090266;28;20044;-54
2022/06/04 11:25:41;;;;;;;4.78;1.80;;;;;;;26.54;42.01;94038.38;5090752;28;20325;-51
2022/06/04 11:28:11;;;;;;;4.25;1.92;;;;;;;26.46;42.25;94036.09;5090376;28;20055;-50
2022/06/04 11:30:58;;;;;;;3.25;1.70;;;;;;;26.98;41.21;94028.94;5090873;28;20044;-53
2022/06/04 11:33:46;;;;;;;3.17;1.50;;;;;;;26.61;40.35;94035.81;5090035;28;20032;-52
2022/06/04 11:36:28;;;;;;;4.43;1.70;;;;;;;25.89;42.43;94031.88;5090068;28;20036;-50
2022/06/04 11:38:55;;;;;;;3.38;1.50;;;;;;;25.10;43.64;94027.00;5089716;28;20054;-48
2022/06/04 11:41:42;;;;;;;5.18;1.60;;;;;;;25.63;42.56;94041.34;5088919;28;20096;-50
2022/06/04 11:44:30;;;;;;;5.40;1.80;;;;;;;26.39;40.85;94033.81;5089246;28;20377;-53
2022/06/04 11:47:31;;;;;;;3.35;1.60;;;;;;;27.10;39.92;94038.91;5089527;28;20062;-51
2022/06/04 11:50:23;;;;;;;4.13;1.70;;;;;;;27.18;39.69;94043.94;5089749;28;20040;-50
2022/06/04 11:52:56;;;;;;;3.80;1.30;;;;;;;27.33;38.93;94035.19;5093468;28;20032;-50
2022/06/04 11:55:34;;;;;;;5.07;1.77;;;;;;;27.61;38.18;94032.16;5109276;28;21739;-51
2022/06/04 11:58:31;;;;;;;3.40;1.70;;;;;;;28.03;38.07;94041.25;5110339;28;20399;-52
2022/06/04 12:01:04;;;;;;;3.75;1.30;;;;;;;28.19;37.77;94043.19;5109946;28;20043;-54
2022/06/04 12:03:42;;;;;;;4.10;1.53;;;;;;;27.95;38.07;94043.94;5110334;28;20455;-47
2022/06/04 12:06:18;;;;;;;3.30;1.50;;;;;;;27.93;37.18;94037.25;5108723;28;20050;-48
2022/06/04 12:09:07;;;;;;;3.30;1.60;;;;;;;27.67;37.59;94042.09;5110425;28;20153;-51
2022/06/04 12:12:05;;;;;;;4.20;1.60;;;;;;;28.04;36.92;94037.91;5109511;28;21623;-48